sensor_id;sensor_type;location;lat;lon;timestamp;P1;durP1;ratioP1;P2;durP2;ratioP2
1106;SDS011;540;49.448;8.612;2023-05-01T00:01:37;1.58;;;1.25;;
1106;SDS011;540;49.448;8.612;2023-05-01T00:04:05;1.85;;;1.38;;
1106;SDS011;540;49.448;8.612;2023-05-01T00:06:33;4.38;;;1.63;;
1106;SDS011;540;49.448;8.612;2023-05-01T00:09:01;2.10;;;1.40;;
1106;SDS011;540;49.448;8.612;2023-05-01T00:11:29;2.80;;;1.30;;
1106;SDS011;540;49.448;8.612;2023-05-01T00:13:56;3.92;;;2.05;;
1106;SDS011;540;49.448;8.612;2023-05-01T00:16:26;5.82;;;2.45;;
1106;SDS011;540;49.448;8.612;2023-05-01T00:18:54;3.25;;;2.10;;
1106;SDS011;540;49.448;8.612;2023-05-01T00:21:21;3.53;;;2.13;;
1106;SDS011;540;49.448;8.612;2023-05-01T00:23:49;3.30;;;1.58;;
1106;SDS011;540;49.448;8.612;2023-05-01T00:26:17;3.40;;;2.03;;
1106;SDS011;540;49.448;8.612;2023-05-01T00:28:45;2.40;;;1.65;;
1106;SDS011;540;49.448;8.612;2023-05-01T00:31:13;3.33;;;2.00;;
1106;SDS011;540;49.448;8.612;2023-05-01T00:33:42;2.42;;;1.60;;
1106;SDS011;540;49.448;8.612;2023-05-01T00:36:10;4.72;;;2.13;;
1106;SDS011;540;49.448;8.612;2023-05-01T00:38:37;2.05;;;1.50;;
1106;SDS011;540;49.448;8.612;2023-05-01T00:41:05;2.90;;;1.63;;
1106;SDS011;540;49.448;8.612;2023-05-01T00:43:33;3.35;;;1.80;;
1106;SDS011;540;49.448;8.612;2023-05-01T00:46:01;2.95;;;1.45;;
1106;SDS011;540;49.448;8.612;2023-05-01T00:48:29;2.42;;;1.65;;
1106;SDS011;540;49.448;8.612;2023-05-01T00:50:58;2.92;;;1.42;;
1106;SDS011;540;49.448;8.612;2023-05-01T00:53:27;2.22;;;1.58;;
1106;SDS011;540;49.448;8.612;2023-05-01T00:55:56;3.95;;;1.50;;
1106;SDS011;540;49.448;8.612;2023-05-01T00:58:25;1.95;;;1.52;;
1106;SDS011;540;49.448;8.612;2023-05-01T01:00:53;1.40;;;1.23;;
1106;SDS011;540;49.448;8.612;2023-05-01T01:03:21;2.28;;;1.40;;
1106;SDS011;540;49.448;8.612;2023-05-01T01:05:50;2.35;;;1.67;;
1106;SDS011;540;49.448;8.612;2023-05-01T01:08:25;2.78;;;1.50;;
1106;SDS011;540;49.448;8.612;2023-05-01T01:11:00;1.85;;;1.33;;
1106;SDS011;540;49.448;8.612;2023-05-01T01:13:42;2.22;;;1.58;;
1106;SDS011;540;49.448;8.612;2023-05-01T01:16:15;4.10;;;1.75;;
1106;SDS011;540;49.448;8.612;2023-05-01T01:18:51;2.25;;;1.60;;
1106;SDS011;540;49.448;8.612;2023-05-01T01:21:26;2.40;;;1.20;;
1106;SDS011;540;49.448;8.612;2023-05-01T01:27:29;2.05;;;1.67;;
1106;SDS011;540;49.448;8.612;2023-05-01T01:30:32;2.10;;;1.40;;
1106;SDS011;540;49.448;8.612;2023-05-01T01:33:15;3.42;;;2.25;;
1106;SDS011;540;49.448;8.612;2023-05-01T01:35:54;1.70;;;1.42;;
1106;SDS011;540;49.448;8.612;2023-05-01T01:38:28;3.63;;;1.77;;
1106;SDS011;540;49.448;8.612;2023-05-01T01:41:04;1.63;;;1.20;;
1106;SDS011;540;49.448;8.612;2023-05-01T01:43:37;4.97;;;1.67;;
1106;SDS011;540;49.448;8.612;2023-05-01T01:46:09;3.25;;;1.50;;
1106;SDS011;540;49.448;8.612;2023-05-01T01:48:39;3.75;;;1.55;;
1106;SDS011;540;49.448;8.612;2023-05-01T01:51:10;2.40;;;1.73;;
1106;SDS011;540;49.448;8.612;2023-05-01T01:53:42;11.13;;;1.67;;
1106;SDS011;540;49.448;8.612;2023-05-01T01:56:16;2.92;;;1.88;;
1106;SDS011;540;49.448;8.612;2023-05-01T01:58:46;2.78;;;1.23;;
1106;SDS011;540;49.448;8.612;2023-05-01T02:01:15;1.63;;;1.40;;
1106;SDS011;540;49.448;8.612;2023-05-01T02:03:46;1.50;;;1.25;;
1106;SDS011;540;49.448;8.612;2023-05-01T02:06:16;4.00;;;1.50;;
1106;SDS011;540;49.448;8.612;2023-05-01T02:08:44;1.48;;;1.00;;
1106;SDS011;540;49.448;8.612;2023-05-01T02:11:14;1.88;;;1.25;;
1106;SDS011;540;49.448;8.612;2023-05-01T02:13:45;1.65;;;1.30;;
1106;SDS011;540;49.448;8.612;2023-05-01T02:16:14;3.10;;;1.48;;
1106;SDS011;540;49.448;8.612;2023-05-01T02:18:43;2.05;;;1.48;;
1106;SDS011;540;49.448;8.612;2023-05-01T02:21:13;1.60;;;1.33;;
1106;SDS011;540;49.448;8.612;2023-05-01T02:23:42;2.30;;;1.40;;
1106;SDS011;540;49.448;8.612;2023-05-01T02:26:11;2.45;;;1.75;;
1106;SDS011;540;49.448;8.612;2023-05-01T02:28:42;1.67;;;1.48;;
1106;SDS011;540;49.448;8.612;2023-05-01T02:31:10;4.38;;;1.80;;
1106;SDS011;540;49.448;8.612;2023-05-01T02:33:38;2.60;;;1.90;;
1106;SDS011;540;49.448;8.612;2023-05-01T02:36:06;2.17;;;1.80;;
1106;SDS011;540;49.448;8.612;2023-05-01T02:38:33;4.25;;;2.00;;
1106;SDS011;540;49.448;8.612;2023-05-01T02:41:03;2.67;;;2.03;;
1106;SDS011;540;49.448;8.612;2023-05-01T02:43:32;3.88;;;1.70;;
1106;SDS011;540;49.448;8.612;2023-05-01T02:46:01;2.42;;;1.42;;
1106;SDS011;540;49.448;8.612;2023-05-01T02:48:30;4.07;;;2.15;;
1106;SDS011;540;49.448;8.612;2023-05-01T02:50:59;5.45;;;2.20;;
1106;SDS011;540;49.448;8.612;2023-05-01T02:53:29;2.58;;;1.90;;
1106;SDS011;540;49.448;8.612;2023-05-01T02:55:57;2.30;;;1.90;;
1106;SDS011;540;49.448;8.612;2023-05-01T02:58:29;3.08;;;1.77;;
1106;SDS011;540;49.448;8.612;2023-05-01T03:00:57;2.10;;;1.73;;
1106;SDS011;540;49.448;8.612;2023-05-01T03:03:25;4.00;;;2.15;;
1106;SDS011;540;49.448;8.612;2023-05-01T03:05:53;4.32;;;2.35;;
1106;SDS011;540;49.448;8.612;2023-05-01T03:08:22;3.03;;;2.00;;
1106;SDS011;540;49.448;8.612;2023-05-01T03:10:50;3.03;;;1.98;;
1106;SDS011;540;49.448;8.612;2023-05-01T03:13:17;3.70;;;1.98;;
1106;SDS011;540;49.448;8.612;2023-05-01T03:15:47;4.18;;;2.40;;
1106;SDS011;540;49.448;8.612;2023-05-01T03:18:14;2.95;;;2.10;;
1106;SDS011;540;49.448;8.612;2023-05-01T03:20:49;4.25;;;1.77;;
1106;SDS011;540;49.448;8.612;2023-05-01T03:23:18;3.70;;;2.22;;
1106;SDS011;540;49.448;8.612;2023-05-01T03:25:46;4.97;;;2.83;;
1106;SDS011;540;49.448;8.612;2023-05-01T03:28:14;3.28;;;2.20;;
1106;SDS011;540;49.448;8.612;2023-05-01T03:30:42;5.53;;;1.92;;
1106;SDS011;540;49.448;8.612;2023-05-01T03:33:12;2.45;;;1.83;;
1106;SDS011;540;49.448;8.612;2023-05-01T03:35:40;5.85;;;2.40;;
1106;SDS011;540;49.448;8.612;2023-05-01T03:38:08;3.95;;;1.92;;
1106;SDS011;540;49.448;8.612;2023-05-01T03:40:36;2.15;;;1.70;;
1106;SDS011;540;49.448;8.612;2023-05-01T03:43:04;2.45;;;2.25;;
1106;SDS011;540;49.448;8.612;2023-05-01T03:45:31;3.60;;;2.22;;
1106;SDS011;540;49.448;8.612;2023-05-01T03:47:59;3.22;;;1.90;;
1106;SDS011;540;49.448;8.612;2023-05-01T03:50:28;3.92;;;2.63;;
1106;SDS011;540;49.448;8.612;2023-05-01T03:52:57;3.28;;;2.20;;
1106;SDS011;540;49.448;8.612;2023-05-01T03:55:24;2.80;;;1.85;;
1106;SDS011;540;49.448;8.612;2023-05-01T03:57:52;2.60;;;1.92;;
1106;SDS011;540;49.448;8.612;2023-05-01T04:00:20;4.43;;;2.40;;
1106;SDS011;540;49.448;8.612;2023-05-01T04:02:48;5.90;;;2.15;;
1106;SDS011;540;49.448;8.612;2023-05-01T04:05:16;3.75;;;2.15;;
1106;SDS011;540;49.448;8.612;2023-05-01T04:07:45;7.32;;;2.60;;
1106;SDS011;540;49.448;8.612;2023-05-01T04:10:13;5.60;;;2.72;;
1106;SDS011;540;49.448;8.612;2023-05-01T04:12:42;3.03;;;2.20;;
1106;SDS011;540;49.448;8.612;2023-05-01T04:15:10;6.50;;;2.80;;
1106;SDS011;540;49.448;8.612;2023-05-01T04:17:40;3.28;;;2.40;;
1106;SDS011;540;49.448;8.612;2023-05-01T04:20:09;3.83;;;2.67;;
1106;SDS011;540;49.448;8.612;2023-05-01T04:22:38;4.50;;;2.10;;
1106;SDS011;540;49.448;8.612;2023-05-01T04:25:07;3.72;;;2.17;;
1106;SDS011;540;49.448;8.612;2023-05-01T04:27:36;3.55;;;2.30;;
1106;SDS011;540;49.448;8.612;2023-05-01T04:30:04;3.65;;;2.00;;
1106;SDS011;540;49.448;8.612;2023-05-01T04:32:32;3.38;;;2.45;;
1106;SDS011;540;49.448;8.612;2023-05-01T04:35:00;2.92;;;2.33;;
1106;SDS011;540;49.448;8.612;2023-05-01T04:37:29;7.45;;;2.70;;
1106;SDS011;540;49.448;8.612;2023-05-01T04:39:57;3.17;;;2.20;;
1106;SDS011;540;49.448;8.612;2023-05-01T04:42:30;2.90;;;2.10;;
1106;SDS011;540;49.448;8.612;2023-05-01T04:44:58;3.63;;;2.25;;
1106;SDS011;540;49.448;8.612;2023-05-01T04:47:29;4.93;;;2.30;;
1106;SDS011;540;49.448;8.612;2023-05-01T04:49:57;4.28;;;1.98;;
1106;SDS011;540;49.448;8.612;2023-05-01T04:52:24;2.83;;;2.28;;
1106;SDS011;540;49.448;8.612;2023-05-01T04:54:52;4.00;;;2.28;;
1106;SDS011;540;49.448;8.612;2023-05-01T04:57:20;4.13;;;2.47;;
1106;SDS011;540;49.448;8.612;2023-05-01T04:59:49;7.57;;;3.05;;
1106;SDS011;540;49.448;8.612;2023-05-01T05:02:17;3.17;;;2.30;;
1106;SDS011;540;49.448;8.612;2023-05-01T05:04:45;5.25;;;2.50;;
1106;SDS011;540;49.448;8.612;2023-05-01T05:07:12;3.58;;;2.50;;
1106;SDS011;540;49.448;8.612;2023-05-01T05:09:42;2.88;;;2.10;;
1106;SDS011;540;49.448;8.612;2023-05-01T05:12:10;6.63;;;2.85;;
1106;SDS011;540;49.448;8.612;2023-05-01T05:14:39;4.25;;;2.50;;
1106;SDS011;540;49.448;8.612;2023-05-01T05:17:09;5.43;;;2.47;;
1106;SDS011;540;49.448;8.612;2023-05-01T05:19:37;3.92;;;2.40;;
1106;SDS011;540;49.448;8.612;2023-05-01T05:22:04;5.30;;;2.47;;
1106;SDS011;540;49.448;8.612;2023-05-01T05:24:32;8.00;;;2.50;;
1106;SDS011;540;49.448;8.612;2023-05-01T05:27:00;5.72;;;2.25;;
1106;SDS011;540;49.448;8.612;2023-05-01T05:29:29;4.07;;;2.63;;
1106;SDS011;540;49.448;8.612;2023-05-01T05:31:57;2.92;;;2.28;;
1106;SDS011;540;49.448;8.612;2023-05-01T05:34:27;3.90;;;2.25;;
1106;SDS011;540;49.448;8.612;2023-05-01T05:36:55;6.00;;;2.78;;
1106;SDS011;540;49.448;8.612;2023-05-01T05:39:22;3.35;;;2.40;;
1106;SDS011;540;49.448;8.612;2023-05-01T05:41:50;7.22;;;2.50;;
1106;SDS011;540;49.448;8.612;2023-05-01T05:44:19;4.60;;;2.30;;
1106;SDS011;540;49.448;8.612;2023-05-01T05:46:47;5.90;;;2.72;;
1106;SDS011;540;49.448;8.612;2023-05-01T05:49:14;4.45;;;3.22;;
1106;SDS011;540;49.448;8.612;2023-05-01T05:51:43;4.55;;;2.97;;
1106;SDS011;540;49.448;8.612;2023-05-01T05:54:11;3.47;;;2.20;;
1106;SDS011;540;49.448;8.612;2023-05-01T05:56:39;3.53;;;2.65;;
1106;SDS011;540;49.448;8.612;2023-05-01T05:59:07;4.53;;;2.45;;
1106;SDS011;540;49.448;8.612;2023-05-01T06:01:35;3.05;;;2.40;;
1106;SDS011;540;49.448;8.612;2023-05-01T06:04:04;4.97;;;2.30;;
1106;SDS011;540;49.448;8.612;2023-05-01T06:06:32;5.80;;;3.30;;
1106;SDS011;540;49.448;8.612;2023-05-01T06:09:01;4.75;;;2.63;;
1106;SDS011;540;49.448;8.612;2023-05-01T06:11:29;4.15;;;2.60;;
1106;SDS011;540;49.448;8.612;2023-05-01T06:13:57;4.82;;;3.05;;
1106;SDS011;540;49.448;8.612;2023-05-01T06:16:25;3.38;;;2.45;;
1106;SDS011;540;49.448;8.612;2023-05-01T06:18:53;4.30;;;2.47;;
1106;SDS011;540;49.448;8.612;2023-05-01T06:21:21;3.75;;;2.63;;
1106;SDS011;540;49.448;8.612;2023-05-01T06:23:49;3.15;;;2.30;;
1106;SDS011;540;49.448;8.612;2023-05-01T06:26:18;4.35;;;2.10;;
1106;SDS011;540;49.448;8.612;2023-05-01T06:28:46;3.60;;;2.67;;
1106;SDS011;540;49.448;8.612;2023-05-01T06:31:14;3.60;;;2.50;;
1106;SDS011;540;49.448;8.612;2023-05-01T06:33:42;5.82;;;2.50;;
1106;SDS011;540;49.448;8.612;2023-05-01T06:36:10;4.97;;;2.22;;
1106;SDS011;540;49.448;8.612;2023-05-01T06:38:38;2.50;;;2.28;;
1106;SDS011;540;49.448;8.612;2023-05-01T06:41:07;3.38;;;2.47;;
1106;SDS011;540;49.448;8.612;2023-05-01T06:43:36;4.47;;;2.20;;
1106;SDS011;540;49.448;8.612;2023-05-01T06:46:04;3.67;;;2.53;;
1106;SDS011;540;49.448;8.612;2023-05-01T06:48:31;3.58;;;2.47;;
1106;SDS011;540;49.448;8.612;2023-05-01T06:50:59;3.72;;;2.58;;
1106;SDS011;540;49.448;8.612;2023-05-01T06:53:27;5.28;;;2.95;;
1106;SDS011;540;49.448;8.612;2023-05-01T06:55:55;4.53;;;2.95;;
1106;SDS011;540;49.448;8.612;2023-05-01T06:58:23;7.50;;;2.85;;
1106;SDS011;540;49.448;8.612;2023-05-01T07:00:52;3.97;;;2.92;;
1106;SDS011;540;49.448;8.612;2023-05-01T07:03:20;3.05;;;2.38;;
1106;SDS011;540;49.448;8.612;2023-05-01T07:05:48;3.15;;;2.50;;
1106;SDS011;540;49.448;8.612;2023-05-01T07:08:16;5.15;;;2.80;;
1106;SDS011;540;49.448;8.612;2023-05-01T07:10:44;4.40;;;2.65;;
1106;SDS011;540;49.448;8.612;2023-05-01T07:13:12;3.60;;;2.50;;
1106;SDS011;540;49.448;8.612;2023-05-01T07:15:41;3.50;;;2.67;;
1106;SDS011;540;49.448;8.612;2023-05-01T07:18:10;3.10;;;2.65;;
1106;SDS011;540;49.448;8.612;2023-05-01T07:20:38;3.50;;;2.80;;
1106;SDS011;540;49.448;8.612;2023-05-01T07:23:06;3.63;;;2.70;;
1106;SDS011;540;49.448;8.612;2023-05-01T07:25:34;4.50;;;2.80;;
1106;SDS011;540;49.448;8.612;2023-05-01T07:28:03;3.78;;;2.58;;
1106;SDS011;540;49.448;8.612;2023-05-01T07:30:34;4.68;;;2.72;;
1106;SDS011;540;49.448;8.612;2023-05-01T07:33:02;8.75;;;2.60;;
1106;SDS011;540;49.448;8.612;2023-05-01T07:35:32;4.20;;;2.67;;
1106;SDS011;540;49.448;8.612;2023-05-01T07:38:00;4.70;;;2.72;;
1106;SDS011;540;49.448;8.612;2023-05-01T07:40:28;4.13;;;2.40;;
1106;SDS011;540;49.448;8.612;2023-05-01T07:42:57;4.82;;;2.75;;
1106;SDS011;540;49.448;8.612;2023-05-01T07:45:25;3.67;;;2.47;;
1106;SDS011;540;49.448;8.612;2023-05-01T07:47:53;4.22;;;2.60;;
1106;SDS011;540;49.448;8.612;2023-05-01T07:50:22;4.15;;;2.78;;
1106;SDS011;540;49.448;8.612;2023-05-01T07:52:52;5.95;;;2.88;;
1106;SDS011;540;49.448;8.612;2023-05-01T07:55:20;4.85;;;3.08;;
1106;SDS011;540;49.448;8.612;2023-05-01T07:57:48;6.10;;;2.90;;
1106;SDS011;540;49.448;8.612;2023-05-01T08:00:16;7.63;;;5.72;;
1106;SDS011;540;49.448;8.612;2023-05-01T08:02:44;6.60;;;4.30;;
1106;SDS011;540;49.448;8.612;2023-05-01T08:05:14;6.75;;;3.90;;
1106;SDS011;540;49.448;8.612;2023-05-01T08:07:43;4.78;;;3.00;;
1106;SDS011;540;49.448;8.612;2023-05-01T08:10:15;4.85;;;3.63;;
1106;SDS011;540;49.448;8.612;2023-05-01T08:12:44;4.85;;;3.47;;
1106;SDS011;540;49.448;8.612;2023-05-01T08:15:14;5.47;;;3.03;;
1106;SDS011;540;49.448;8.612;2023-05-01T08:17:44;6.28;;;3.30;;
1106;SDS011;540;49.448;8.612;2023-05-01T08:20:14;6.72;;;3.35;;
1106;SDS011;540;49.448;8.612;2023-05-01T08:22:44;7.80;;;3.42;;
1106;SDS011;540;49.448;8.612;2023-05-01T08:25:15;5.97;;;3.05;;
1106;SDS011;540;49.448;8.612;2023-05-01T08:27:45;4.43;;;3.58;;
1106;SDS011;540;49.448;8.612;2023-05-01T08:30:15;5.93;;;4.57;;
1106;SDS011;540;49.448;8.612;2023-05-01T08:32:44;4.82;;;3.58;;
1106;SDS011;540;49.448;8.612;2023-05-01T08:35:14;5.82;;;3.10;;
1106;SDS011;540;49.448;8.612;2023-05-01T08:37:44;5.40;;;3.70;;
1106;SDS011;540;49.448;8.612;2023-05-01T08:40:16;4.68;;;2.80;;
1106;SDS011;540;49.448;8.612;2023-05-01T08:42:46;3.25;;;2.50;;
1106;SDS011;540;49.448;8.612;2023-05-01T08:45:16;8.15;;;4.28;;
1106;SDS011;540;49.448;8.612;2023-05-01T08:47:47;3.90;;;2.90;;
1106;SDS011;540;49.448;8.612;2023-05-01T08:50:18;6.72;;;3.40;;
1106;SDS011;540;49.448;8.612;2023-05-01T08:52:49;3.83;;;2.85;;
1106;SDS011;540;49.448;8.612;2023-05-01T08:55:21;4.43;;;3.35;;
1106;SDS011;540;49.448;8.612;2023-05-01T08:57:53;4.47;;;3.00;;
1106;SDS011;540;49.448;8.612;2023-05-01T09:00:23;5.03;;;3.05;;
1106;SDS011;540;49.448;8.612;2023-05-01T09:02:52;5.70;;;3.28;;
1106;SDS011;540;49.448;8.612;2023-05-01T09:05:21;3.50;;;2.50;;
1106;SDS011;540;49.448;8.612;2023-05-01T09:07:50;6.78;;;3.33;;
1106;SDS011;540;49.448;8.612;2023-05-01T09:10:18;6.25;;;3.13;;
1106;SDS011;540;49.448;8.612;2023-05-01T09:12:48;5.30;;;3.50;;
1106;SDS011;540;49.448;8.612;2023-05-01T09:15:20;4.63;;;3.08;;
1106;SDS011;540;49.448;8.612;2023-05-01T09:17:48;4.45;;;3.25;;
1106;SDS011;540;49.448;8.612;2023-05-01T09:20:17;4.45;;;3.00;;
1106;SDS011;540;49.448;8.612;2023-05-01T09:22:46;4.90;;;3.10;;
1106;SDS011;540;49.448;8.612;2023-05-01T09:25:14;4.20;;;2.80;;
1106;SDS011;540;49.448;8.612;2023-05-01T09:27:46;4.18;;;3.22;;
1106;SDS011;540;49.448;8.612;2023-05-01T09:30:28;5.32;;;3.53;;
1106;SDS011;540;49.448;8.612;2023-05-01T09:33:03;6.55;;;3.20;;
1106;SDS011;540;49.448;8.612;2023-05-01T09:35:32;8.05;;;3.38;;
1106;SDS011;540;49.448;8.612;2023-05-01T09:38:16;7.15;;;3.70;;
1106;SDS011;540;49.448;8.612;2023-05-01T09:40:44;6.65;;;3.60;;
1106;SDS011;540;49.448;8.612;2023-05-01T09:43:15;4.03;;;3.28;;
1106;SDS011;540;49.448;8.612;2023-05-01T09:46:00;5.97;;;3.30;;
1106;SDS011;540;49.448;8.612;2023-05-01T09:48:30;4.50;;;3.10;;
1106;SDS011;540;49.448;8.612;2023-05-01T09:51:01;5.03;;;3.55;;
1106;SDS011;540;49.448;8.612;2023-05-01T09:53:46;4.40;;;3.22;;
1106;SDS011;540;49.448;8.612;2023-05-01T09:56:14;7.07;;;3.35;;
1106;SDS011;540;49.448;8.612;2023-05-01T09:58:44;7.07;;;3.70;;
1106;SDS011;540;49.448;8.612;2023-05-01T10:01:12;4.47;;;3.03;;
1106;SDS011;540;49.448;8.612;2023-05-01T10:03:41;3.30;;;2.80;;
1106;SDS011;540;49.448;8.612;2023-05-01T10:06:11;6.93;;;3.03;;
1106;SDS011;540;49.448;8.612;2023-05-01T10:08:52;4.50;;;2.60;;
1106;SDS011;540;49.448;8.612;2023-05-01T10:11:20;6.35;;;3.58;;
1106;SDS011;540;49.448;8.612;2023-05-01T10:16:35;4.60;;;2.95;;
1106;SDS011;540;49.448;8.612;2023-05-01T10:19:04;3.92;;;3.20;;
1106;SDS011;540;49.448;8.612;2023-05-01T10:21:32;3.38;;;2.85;;
1106;SDS011;540;49.448;8.612;2023-05-01T10:24:01;6.07;;;2.88;;
1106;SDS011;540;49.448;8.612;2023-05-01T10:26:31;4.30;;;3.10;;
1106;SDS011;540;49.448;8.612;2023-05-01T10:28:59;4.05;;;3.35;;
1106;SDS011;540;49.448;8.612;2023-05-01T10:31:29;4.57;;;3.20;;
1106;SDS011;540;49.448;8.612;2023-05-01T10:33:59;4.28;;;2.97;;
1106;SDS011;540;49.448;8.612;2023-05-01T10:36:30;3.47;;;2.95;;
1106;SDS011;540;49.448;8.612;2023-05-01T10:39:00;4.18;;;3.40;;
1106;SDS011;540;49.448;8.612;2023-05-01T10:44:33;5.10;;;3.45;;
1106;SDS011;540;49.448;8.612;2023-05-01T10:50:12;6.50;;;3.13;;
1106;SDS011;540;49.448;8.612;2023-05-01T10:55:44;4.57;;;3.03;;
1106;SDS011;540;49.448;8.612;2023-05-01T10:58:14;4.63;;;3.35;;
1106;SDS011;540;49.448;8.612;2023-05-01T11:01:29;4.32;;;3.00;;
1106;SDS011;540;49.448;8.612;2023-05-01T11:03:58;3.90;;;3.55;;
1106;SDS011;540;49.448;8.612;2023-05-01T11:06:30;4.65;;;3.00;;
1106;SDS011;540;49.448;8.612;2023-05-01T11:08:58;4.70;;;3.45;;
1106;SDS011;540;49.448;8.612;2023-05-01T11:11:45;5.57;;;2.85;;
1106;SDS011;540;49.448;8.612;2023-05-01T11:14:14;4.20;;;3.10;;
1106;SDS011;540;49.448;8.612;2023-05-01T11:16:43;3.47;;;3.08;;
1106;SDS011;540;49.448;8.612;2023-05-01T11:22:19;5.03;;;3.47;;
1106;SDS011;540;49.448;8.612;2023-05-01T11:24:47;3.90;;;3.38;;
1106;SDS011;540;49.448;8.612;2023-05-01T11:27:15;4.03;;;3.60;;
1106;SDS011;540;49.448;8.612;2023-05-01T11:29:43;8.32;;;4.43;;
1106;SDS011;540;49.448;8.612;2023-05-01T11:32:18;4.15;;;3.28;;
1106;SDS011;540;49.448;8.612;2023-05-01T11:34:49;4.30;;;3.40;;
1106;SDS011;540;49.448;8.612;2023-05-01T11:37:19;3.90;;;2.95;;
1106;SDS011;540;49.448;8.612;2023-05-01T11:40:10;4.53;;;3.35;;
1106;SDS011;540;49.448;8.612;2023-05-01T11:42:46;6.32;;;3.50;;
1106;SDS011;540;49.448;8.612;2023-05-01T11:45:14;5.70;;;3.80;;
1106;SDS011;540;49.448;8.612;2023-05-01T11:47:41;4.22;;;3.45;;
1106;SDS011;540;49.448;8.612;2023-05-01T11:50:09;3.95;;;3.22;;
1106;SDS011;540;49.448;8.612;2023-05-01T11:52:42;3.20;;;2.90;;
1106;SDS011;540;49.448;8.612;2023-05-01T11:55:11;6.50;;;3.00;;
1106;SDS011;540;49.448;8.612;2023-05-01T11:57:46;6.68;;;3.40;;
1106;SDS011;540;49.448;8.612;2023-05-01T12:00:14;6.30;;;3.40;;
1106;SDS011;540;49.448;8.612;2023-05-01T12:02:54;6.35;;;3.90;;
1106;SDS011;540;49.448;8.612;2023-05-01T12:05:23;3.83;;;3.25;;
1106;SDS011;540;49.448;8.612;2023-05-01T12:08:05;3.25;;;2.55;;
1106;SDS011;540;49.448;8.612;2023-05-01T12:10:36;5.15;;;3.35;;
1106;SDS011;540;49.448;8.612;2023-05-01T12:13:05;3.50;;;3.20;;
1106;SDS011;540;49.448;8.612;2023-05-01T12:15:35;5.30;;;3.65;;
1106;SDS011;540;49.448;8.612;2023-05-01T12:18:04;5.80;;;3.65;;
1106;SDS011;540;49.448;8.612;2023-05-01T12:20:32;4.90;;;3.28;;
1106;SDS011;540;49.448;8.612;2023-05-01T12:23:05;6.20;;;3.75;;
1106;SDS011;540;49.448;8.612;2023-05-01T12:25:35;2.95;;;2.38;;
1106;SDS011;540;49.448;8.612;2023-05-01T12:28:06;4.80;;;3.30;;
1106;SDS011;540;49.448;8.612;2023-05-01T12:30:36;3.97;;;2.83;;
1106;SDS011;540;49.448;8.612;2023-05-01T12:33:07;3.28;;;2.97;;
1106;SDS011;540;49.448;8.612;2023-05-01T12:35:37;3.42;;;2.30;;
1106;SDS011;540;49.448;8.612;2023-05-01T12:38:10;4.03;;;3.10;;
1106;SDS011;540;49.448;8.612;2023-05-01T12:40:40;3.85;;;2.55;;
1106;SDS011;540;49.448;8.612;2023-05-01T12:43:18;4.65;;;2.67;;
1106;SDS011;540;49.448;8.612;2023-05-01T12:45:48;5.68;;;3.00;;
1106;SDS011;540;49.448;8.612;2023-05-01T12:48:18;3.63;;;2.88;;
1106;SDS011;540;49.448;8.612;2023-05-01T12:50:47;5.03;;;2.72;;
1106;SDS011;540;49.448;8.612;2023-05-01T12:53:21;3.53;;;2.75;;
1106;SDS011;540;49.448;8.612;2023-05-01T12:55:50;4.65;;;2.97;;
1106;SDS011;540;49.448;8.612;2023-05-01T12:58:19;4.25;;;3.30;;
1106;SDS011;540;49.448;8.612;2023-05-01T13:00:47;4.03;;;3.22;;
1106;SDS011;540;49.448;8.612;2023-05-01T13:03:19;3.47;;;2.85;;
1106;SDS011;540;49.448;8.612;2023-05-01T13:05:51;6.35;;;2.90;;
1106;SDS011;540;49.448;8.612;2023-05-01T13:08:27;4.35;;;3.20;;
1106;SDS011;540;49.448;8.612;2023-05-01T13:10:56;4.85;;;3.13;;
1106;SDS011;540;49.448;8.612;2023-05-01T13:13:26;4.50;;;2.78;;
1106;SDS011;540;49.448;8.612;2023-05-01T13:16:04;3.63;;;2.80;;
1106;SDS011;540;49.448;8.612;2023-05-01T13:18:41;3.42;;;2.60;;
1106;SDS011;540;49.448;8.612;2023-05-01T13:21:10;4.30;;;2.60;;
1106;SDS011;540;49.448;8.612;2023-05-01T13:23:50;3.38;;;2.72;;
1106;SDS011;540;49.448;8.612;2023-05-01T13:26:23;4.93;;;2.90;;
1106;SDS011;540;49.448;8.612;2023-05-01T13:28:53;3.63;;;2.85;;
1106;SDS011;540;49.448;8.612;2023-05-01T13:31:22;4.05;;;2.33;;
1106;SDS011;540;49.448;8.612;2023-05-01T13:33:51;3.40;;;2.50;;
1106;SDS011;540;49.448;8.612;2023-05-01T13:36:20;4.13;;;2.80;;
1106;SDS011;540;49.448;8.612;2023-05-01T13:38:54;2.92;;;2.47;;
1106;SDS011;540;49.448;8.612;2023-05-01T13:41:23;3.53;;;2.78;;
1106;SDS011;540;49.448;8.612;2023-05-01T13:43:52;3.65;;;2.55;;
1106;SDS011;540;49.448;8.612;2023-05-01T13:46:21;3.17;;;2.78;;
1106;SDS011;540;49.448;8.612;2023-05-01T13:48:52;4.35;;;3.30;;
1106;SDS011;540;49.448;8.612;2023-05-01T13:51:21;4.85;;;2.92;;
1106;SDS011;540;49.448;8.612;2023-05-01T13:53:50;3.50;;;2.78;;
1106;SDS011;540;49.448;8.612;2023-05-01T13:56:20;5.05;;;2.80;;
1106;SDS011;540;49.448;8.612;2023-05-01T13:58:48;7.10;;;4.68;;
1106;SDS011;540;49.448;8.612;2023-05-01T14:01:16;2.55;;;2.28;;
1106;SDS011;540;49.448;8.612;2023-05-01T14:03:46;3.88;;;2.20;;
1106;SDS011;540;49.448;8.612;2023-05-01T14:06:15;6.88;;;2.70;;
1106;SDS011;540;49.448;8.612;2023-05-01T14:08:45;3.22;;;2.42;;
1106;SDS011;540;49.448;8.612;2023-05-01T14:11:13;4.03;;;2.90;;
1106;SDS011;540;49.448;8.612;2023-05-01T14:13:44;2.90;;;2.38;;
1106;SDS011;540;49.448;8.612;2023-05-01T14:16:15;3.00;;;2.08;;
1106;SDS011;540;49.448;8.612;2023-05-01T14:18:49;2.40;;;2.00;;
1106;SDS011;540;49.448;8.612;2023-05-01T14:21:22;4.78;;;2.33;;
1106;SDS011;540;49.448;8.612;2023-05-01T14:23:52;4.88;;;2.60;;
1106;SDS011;540;49.448;8.612;2023-05-01T14:26:21;5.93;;;2.63;;
1106;SDS011;540;49.448;8.612;2023-05-01T14:28:51;5.75;;;2.78;;
1106;SDS011;540;49.448;8.612;2023-05-01T14:31:23;2.65;;;2.17;;
1106;SDS011;540;49.448;8.612;2023-05-01T14:33:54;4.47;;;2.08;;
1106;SDS011;540;49.448;8.612;2023-05-01T14:36:23;5.25;;;2.30;;
1106;SDS011;540;49.448;8.612;2023-05-01T14:38:51;2.55;;;2.35;;
1106;SDS011;540;49.448;8.612;2023-05-01T14:41:22;2.67;;;1.80;;
1106;SDS011;540;49.448;8.612;2023-05-01T14:43:52;2.90;;;1.95;;
1106;SDS011;540;49.448;8.612;2023-05-01T14:46:25;3.28;;;1.95;;
1106;SDS011;540;49.448;8.612;2023-05-01T14:48:55;3.10;;;2.05;;
1106;SDS011;540;49.448;8.612;2023-05-01T14:51:23;3.53;;;2.05;;
1106;SDS011;540;49.448;8.612;2023-05-01T14:53:51;3.00;;;1.75;;
1106;SDS011;540;49.448;8.612;2023-05-01T14:56:19;4.63;;;3.05;;
1106;SDS011;540;49.448;8.612;2023-05-01T14:58:47;2.80;;;1.90;;
1106;SDS011;540;49.448;8.612;2023-05-01T15:01:17;5.00;;;2.72;;
1106;SDS011;540;49.448;8.612;2023-05-01T15:03:45;4.15;;;2.90;;
1106;SDS011;540;49.448;8.612;2023-05-01T15:06:14;3.67;;;1.73;;
1106;SDS011;540;49.448;8.612;2023-05-01T15:08:42;2.38;;;1.88;;
1106;SDS011;540;49.448;8.612;2023-05-01T15:11:11;5.03;;;2.22;;
1106;SDS011;540;49.448;8.612;2023-05-01T15:13:39;2.10;;;1.67;;
1106;SDS011;540;49.448;8.612;2023-05-01T15:16:07;3.47;;;2.25;;
1106;SDS011;540;49.448;8.612;2023-05-01T15:18:37;6.45;;;2.08;;
1106;SDS011;540;49.448;8.612;2023-05-01T15:21:05;2.22;;;1.98;;
1106;SDS011;540;49.448;8.612;2023-05-01T15:23:33;2.67;;;1.90;;
1106;SDS011;540;49.448;8.612;2023-05-01T15:26:02;2.08;;;1.88;;
1106;SDS011;540;49.448;8.612;2023-05-01T15:28:30;2.17;;;1.80;;
1106;SDS011;540;49.448;8.612;2023-05-01T15:30:58;2.47;;;2.20;;
1106;SDS011;540;49.448;8.612;2023-05-01T15:33:26;3.50;;;2.15;;
1106;SDS011;540;49.448;8.612;2023-05-01T15:35:55;2.13;;;1.80;;
1106;SDS011;540;49.448;8.612;2023-05-01T15:38:23;3.35;;;1.90;;
1106;SDS011;540;49.448;8.612;2023-05-01T15:40:52;2.65;;;2.00;;
1106;SDS011;540;49.448;8.612;2023-05-01T15:43:20;2.30;;;1.95;;
1106;SDS011;540;49.448;8.612;2023-05-01T15:45:48;4.13;;;2.05;;
1106;SDS011;540;49.448;8.612;2023-05-01T15:48:17;2.28;;;1.85;;
1106;SDS011;540;49.448;8.612;2023-05-01T15:50:45;3.17;;;2.05;;
1106;SDS011;540;49.448;8.612;2023-05-01T15:53:15;2.63;;;1.92;;
1106;SDS011;540;49.448;8.612;2023-05-01T15:55:43;3.00;;;2.05;;
1106;SDS011;540;49.448;8.612;2023-05-01T15:58:11;4.43;;;2.60;;
1106;SDS011;540;49.448;8.612;2023-05-01T16:00:40;3.92;;;2.13;;
1106;SDS011;540;49.448;8.612;2023-05-01T16:03:10;2.95;;;2.30;;
1106;SDS011;540;49.448;8.612;2023-05-01T16:05:43;4.70;;;2.58;;